Wyk auf Föhr Airport

EDXY · 石勒苏益格-荷尔斯泰因, 德国

使用的METAR站距离机场28 km。
罗盘
风向 的 风向 130° Wyk auf Föhr Airport 2/20
风: 14 kt, 4 beaufort

5 kt

13 kt
改变
0 ft 6.000 12.000 18.000 24.000 30.000
Cloud Cloud Cloud Cloud Cloud Cloud
BKN 25.000
METAR EDXW 020520Z AUTO 13014KT 9999 // BKN250/// 07/05 Q1001

METAR Wyk auf Föhr Airport - EDXY/OHR

Wyk auf Föhr Airport是,德国中的小机场。 该机场位于纬度54,68532和经度8,53059。 该机场有2条跑道: 2/20 和 9/27. 本场的ICAO机场代码为EDXY。 该机场的IATA代码为OHR。 机场在Bremen FIR中。

该航空气象观测是针对Westerland Sylt Airport在2024年3月2日 06:20, 当地时间进行的。

机场观察

风向为130°,速度为14 kt。

可见度为10 km 或者更多。

有碎云在25.000 ft的高度。 破损或更高的上限为25.000 ft。

温度为7 °C,阵风为2 °C。 露点为5 °C,相对湿度为87%。 海平面上的气压为1001 hPa (QNH)。

白天

今天,太阳从07:11升起,在18:04降落。 这适用于Wyk auf Föhr Airport,世界夏令时可能有所不同。 当地时间与世界标准时间之间的时差为+1 小时。 当前,没有夏令时有效。

公司介绍

我们没有关于这个机场的公司信息。

体会

到Vliegles.nl去找飞行课程,跳伞和其他飞行体验。 浏览页面,了解Wyk auf Föhr Airport附近所有可用的活动。 你也可以使用搜索功能来寻找你所在地附近的特定飞行课程、跳伞或其他飞行体验。

跑道

Id 标题 侧风 逆风 侧风 %
2/20 018°-198° 13 kt 5 kt 93 %
9/27 093°-273° 8 kt 11 kt 60 %

逆风成分最大的方向会被突出显示,并用于横风计算。 这并不一定意味着这个方向在使用。

乌云

25.000 ft BKN 碎云

温度 & 天气

温度 7 °C
露点 5 °C
相对湿度 87%
风寒 2 °C
Kp-index 1 (0-9)

白天

日出
07:12 (27m)
中午
12:38
日落
18:04

小工具

你想在你的网站上有一个关于Wyk auf Föhr Airport的当前航空天气(METAR)的小部件吗?

显示HTML代码
?>